Flight Track Log - Related Links

Times and Time Zones

All times are in EDT time to prevent confusion due to time zone crossing. See the UAL4543 flight status page for this flight to view local times or setup timezone preferences in your user account.

Time Position Orientation Groundspeed Altitude Reporting Facility
EDT Latitude Longitude Course Direction KTS MPH feet Rate Location/Type
Tue 09:14:23 PM 40.6500 -74.1833 255° West 168 193 1,500  Level New York TRACON
Tue 09:15:17 PM 40.6500 -74.2333 270° West 241 277 2,900 2,150 Climbing New York TRACON
Tue 09:16:23 PM 40.6667 -74.3167 285° West 256 295 5,800 2,571 Climbing New York TRACON
Tue 09:17:00 PM 40.7630 -74.7237 303° West  Level Estimated
Tue 09:17:23 PM 40.7000 -74.4167 294° West 265 305 8,300  Level New York TRACON
Tue 09:18:00 PM 40.7802 -74.8626 270° West  Level Estimated
Tue 09:19:00 PM 40.7972 -75.0016 255° West  Level Estimated
Tue 09:19:38 PM 40.7669 -74.6425 291° West 317 365 12,600  Level New York Center
Tue 09:20:38 PM 40.7986 -74.7514 291° West 322 371 14,300 1,550 Climbing New York Center
Tue 09:21:38 PM 40.8342 -74.8739 291° West 340 391 15,700 1,400 Climbing New York Center
Tue 09:22:38 PM 40.8567 -75.0044 283° West 360 414 17,100 1,250 Climbing New York Center
Tue 09:23:38 PM 40.8372 -75.1375 259° West 367 422 18,200 1,250 Climbing New York Center
Tue 09:24:38 PM 40.8203 -75.2572 259° West 373 429 19,600 1,400 Climbing New York Center
Tue 09:25:38 PM 40.7961 -75.3925 257° West 373 429 21,000 1,250 Climbing New York Center
Tue 09:26:38 PM 40.7756 -75.5419 260° West 373 429 22,100 1,400 Climbing New York Center
Tue 09:27:38 PM 40.7542 -75.6583 256° West 373 429 23,800 1,500 Climbing New York Center
Tue 09:28:38 PM 40.7361 -75.7939 260° West 373 429 25,100 1,350 Climbing New York Center
Tue 09:29:38 PM 40.7181 -75.9239 260° West 373 429 26,500 1,400 Climbing New York Center
Tue 09:30:38 PM 40.6933 -76.0589 256° West 373 429 27,900 1,400 Climbing New York Center
Tue 09:31:38 PM 40.6681 -76.2019 257° West 373 429 29,300 1,500 Climbing New York Center
Tue 09:32:38 PM 40.6761 -76.3394 274° West 362 417 30,900 1,650 Climbing New York Center
Tue 09:33:38 PM 40.6950 -76.4669 281° West 362 417 32,600 1,700 Climbing New York Center
Tue 09:34:38 PM 40.7142 -76.5892 282° West 357 411 34,300 1,500 Climbing New York Center
Tue 09:35:38 PM 40.7336 -76.7031 283° West 338 389 35,600 850 Climbing New York Center
Tue 09:36:38 PM 40.7483 -76.8222 279° West 333 383 36,000 200 Climbing New York Center
Tue 09:37:38 PM 40.7686 -76.9528 282° West 345 397 36,000  Level New York Center
Tue 09:38:38 PM 40.7883 -77.0944 280° West 370 426 36,000  Level New York Center
Tue 09:39:38 PM 40.8097 -77.2364 281° West 384 442 36,000  Level New York Center
Tue 09:40:38 PM 40.8294 -77.3697 281° West 396 456 36,000  Level New York Center
Tue 09:43:00 PM 40.8800 -77.7353 280° West 422 486 36,000  Level Cleveland Center
Tue 09:44:00 PM 40.9006 -77.8881 280° West 427 491 36,000  Level Cleveland Center
Tue 09:45:00 PM 40.9206 -78.0383 280° West 427 491 36,000  Level Cleveland Center
Tue 09:46:00 PM 40.9386 -78.1889 279° West 427 491 36,000  Level Cleveland Center
Tue 09:47:00 PM 40.9583 -78.3450 280° West 427 491 36,000  Level Cleveland Center
Tue 09:48:00 PM 40.9800 -78.4983 281° West 427 491 36,000  Level Cleveland Center
Tue 09:49:00 PM 40.9994 -78.6517 280° West 427 491 36,000  Level Cleveland Center
Tue 09:50:00 PM 41.0144 -78.8081 277° West 427 491 36,000  Level Cleveland Center
Tue 09:51:00 PM 41.0333 -78.9592 279° West 427 491 36,000  Level Cleveland Center
Tue 09:52:00 PM 41.0522 -79.1156 279° West 427 491 36,000  Level Cleveland Center
Tue 09:53:00 PM 41.0686 -79.2722 278° West 427 491 36,000  Level Cleveland Center
Tue 09:54:00 PM 41.0869 -79.4261 279° West 427 491 36,000  Level Cleveland Center
Tue 09:55:00 PM 41.1050 -79.5772 279° West 427 491 36,000  Level Cleveland Center
Tue 09:56:00 PM 41.1208 -79.7342 278° West 427 491 36,000  Level Cleveland Center
Tue 09:57:00 PM 41.1367 -79.8911 278° West 427 491 36,000  Level Cleveland Center
Tue 09:58:00 PM 41.1542 -80.0425 279° West 427 491 36,000  Level Cleveland Center
Tue 09:59:00 PM 41.1714 -80.1969 278° West 422 486 36,000  Level Cleveland Center
Tue 10:00:00 PM 41.1864 -80.3706 277° West 427 491 36,000  Level Cleveland Center
Tue 10:01:00 PM 41.2033 -80.5253 278° West 434 499 36,000  Level Cleveland Center
Tue 10:02:00 PM 41.2178 -80.6797 277° West 427 491 36,000  Level Cleveland Center
Tue 10:03:00 PM 41.2342 -80.8400 278° West 427 491 36,000  Level Cleveland Center
Tue 10:04:00 PM 41.2483 -80.9919 277° West 427 491 36,000  Level Cleveland Center
Tue 10:05:00 PM 41.2644 -81.1494 278° West 427 491 36,000  Level Cleveland Center
Tue 10:06:00 PM 41.2781 -81.3042 277° West 427 491 36,000  Level Cleveland Center
Tue 10:07:00 PM 41.2958 -81.4481 279° West 427 491 36,000  Level Cleveland Center
Tue 10:08:00 PM 41.3092 -81.6031 277° West 427 491 36,000  Level Cleveland Center
Tue 10:09:00 PM 41.3244 -81.7611 277° West 432 497 36,000  Level Cleveland Center
Tue 10:10:00 PM 41.3372 -81.9189 276° West 427 491 36,000  Level Cleveland Center
Tue 10:11:00 PM 41.3519 -82.0742 277° West 427 491 36,000  Level Cleveland Center
Tue 10:12:00 PM 41.3619 -82.2514 274° West 437 503 36,000  Level Cleveland Center
Tue 10:13:00 PM 41.3719 -82.4122 275° West 437 503 36,000  Level Cleveland Center
Tue 10:14:00 PM 41.3797 -82.5700 274° West 437 503 36,000  Level Cleveland Center
Tue 10:15:00 PM 41.3894 -82.7308 275° West 437 503 36,000  Level Cleveland Center
Tue 10:16:00 PM 41.3972 -82.8722 274° West 437 503 36,000  Level Cleveland Center
Tue 10:17:00 PM 41.4064 -83.0306 274° West 437 503 36,000  Level Cleveland Center
Tue 10:18:00 PM 41.4131 -83.2025 273° West 437 503 36,000  Level Cleveland Center
Tue 10:19:00 PM 41.4197 -83.3578 273° West 437 503 36,000  Level Cleveland Center
Tue 10:20:00 PM 41.4283 -83.5133 274° West 430 495 36,000  Level Cleveland Center
Tue 10:21:00 PM 41.4367 -83.6689 274° West 425 489 36,000  Level Cleveland Center
Tue 10:22:00 PM 41.4428 -83.8269 273° West 425 489 36,000  Level Cleveland Center
Tue 10:23:00 PM 41.4508 -83.9853 274° West 425 489 36,000  Level Cleveland Center
Tue 10:24:05 PM 41.4597 -84.1272 275° West 425 489 36,000  Level Chicago Center
Tue 10:25:06 PM 41.4667 -84.2844 273° West 425 489 36,000  Level Chicago Center
Tue 10:26:08 PM 41.4731 -84.4728 273° West 425 489 36,000  Level Chicago Center
Tue 10:27:09 PM 41.4794 -84.6269 273° West 421 484 36,000  Level Chicago Center
Tue 10:28:10 PM 41.4856 -84.7828 273° West 422 486 36,000  Level Chicago Center
Tue 10:29:11 PM 41.4908 -84.9383 273° West 419 482 36,000  Level Chicago Center
Tue 10:30:12 PM 41.4961 -85.0936 273° West 420 483 36,000  Level Chicago Center
Tue 10:31:14 PM 41.5006 -85.2506 272° West 419 482 36,000  Level Chicago Center
Tue 10:32:15 PM 41.5017 -85.4103 271° West 421 484 36,000  Level Chicago Center
Tue 10:33:16 PM 41.5094 -85.5722 274° West 426 490 36,000  Level Chicago Center
Tue 10:34:17 PM 41.5144 -85.7275 273° West 420 483 36,000  Level Chicago Center
Tue 10:35:19 PM 41.5203 -85.8775 273° West 404 465 36,000  Level Chicago Center
Tue 10:36:20 PM 41.5239 -86.0325 272° West 414 476 36,000  Level Chicago Center
Tue 10:37:21 PM 41.5267 -86.1886 271° West 420 483 36,000  Level Chicago Center
Tue 10:38:22 PM 41.5292 -86.3428 271° West 417 480 36,000  Level Chicago Center
Tue 10:39:24 PM 41.5319 -86.4981 271° West 418 481 36,000  Level Chicago Center
Tue 10:40:25 PM 41.5347 -86.6822 271° West 416 479 36,000  Level Chicago Center
Tue 10:41:26 PM 41.5369 -86.8267 271° West 412 474 36,000  Level Chicago Center
Tue 10:42:27 PM 41.5389 -86.9781 271° West 411 473 36,000  Level Chicago Center
Tue 10:43:29 PM 41.5411 -87.1300 271° West 412 474 36,000  Level Chicago Center
Tue 10:44:30 PM 41.5419 -87.2814 270° West 408 470 36,000  Level Chicago Center
Tue 10:45:31 PM 41.5431 -87.4631 271° West 408 470 36,000  Level Chicago Center
Tue 10:46:32 PM 41.5447 -87.6139 271° West 407 468 36,000  Level Chicago Center
Tue 10:47:33 PM 41.5447 -87.7631 270° West 405 466 36,000  Level Chicago Center
Tue 10:48:35 PM 41.5453 -87.9108 270° West 405 466 36,000  Level Chicago Center
Tue 10:49:36 PM 41.5486 -88.0550 272° West 403 464 36,000  Level Chicago Center
Tue 10:50:37 PM 41.5486 -88.2028 270° West 411 473 36,000  Level Chicago Center
Tue 10:51:38 PM 41.5469 -88.3786 269° West 403 464 36,000  Level Chicago Center
Tue 10:52:39 PM 41.5472 -88.5261 270° West 401 461 36,000  Level Chicago Center
Tue 10:53:40 PM 41.5481 -88.6747 270° West 404 465 36,000  Level Chicago Center
Tue 10:54:41 PM 41.5475 -88.8228 270° West 404 465 36,000  Level Chicago Center
Tue 10:55:42 PM 41.5494 -88.9739 271° West 407 468 36,000  Level Chicago Center
Tue 10:56:43 PM 41.5497 -89.1247 270° West 409 471 36,000  Level Chicago Center
Tue 10:57:44 PM 41.5494 -89.2753 270° West 408 470 36,000  Level Chicago Center
Tue 10:58:45 PM 41.5494 -89.4253 270° West 409 471 36,000  Level Chicago Center
Tue 10:59:46 PM 41.5481 -89.5758 269° West 409 471 36,000  Level Chicago Center
Tue 11:00:47 PM 41.5464 -89.7597 269° West 414 476 36,000  Level Chicago Center
Tue 11:01:48 PM 41.5456 -89.9103 270° West 411 473 36,000  Level Chicago Center
Tue 11:02:49 PM 41.5442 -90.0619 269° West 410 472 36,000  Level Chicago Center
Tue 11:03:50 PM 41.5425 -90.2114 269° West 407 468 36,000  Level Chicago Center
Tue 11:04:51 PM 41.5403 -90.3647 269° West 413 475 36,000  Level Chicago Center
Tue 11:05:52 PM 41.5383 -90.5150 269° West 408 470 36,000  Level Chicago Center
Tue 11:06:53 PM 41.5361 -90.6717 269° West 407 468 36,000  Level Chicago Center
Tue 11:07:54 PM 41.5339 -90.8231 269° West 411 473 36,000  Level Chicago Center
Tue 11:08:55 PM 41.5319 -90.9731 269° West 408 470 36,000  Level Chicago Center
Tue 11:09:56 PM 41.5289 -91.1253 269° West 412 474 36,000  Level Chicago Center
Tue 11:10:57 PM 41.5261 -91.2772 269° West 413 475 36,000  Level Chicago Center
Tue 11:11:58 PM 41.5233 -91.4308 269° West 417 480 36,000 -49 Level Chicago Center
Tue 11:12:59 PM 41.5200 -91.6136 269° West 414 476 35,900 -595 Descending Chicago Center
Tue 11:13:59 PM 41.5206 -91.7653 270° West 412 474 34,800 -1,091 Descending Chicago Center
Tue 11:15:00 PM 41.5233 -91.9161 271° West 410 472 33,700 -1,770 Descending Chicago Center
Tue 11:16:01 PM 41.5244 -92.0686 271° West 412 474 31,200 -2,557 Descending Chicago Center
Tue 11:17:02 PM 41.5269 -92.2200 271° West 412 474 28,500 -2,361 Descending Chicago Center
Tue 11:18:03 PM 41.5283 -92.3772 271° West 419 482 26,400 -2,311 Descending Chicago Center
Tue 11:19:04 PM 41.5292 -92.5358 270° West 426 490 23,800 -3,148 Descending Chicago Center
Tue 11:20:05 PM 41.5311 -92.6836 271° West 407 468 20,000 -3,541 Descending Chicago Center
Tue 11:21:06 PM 41.5319 -92.8331 270° West 397 457 16,600 -3,521 Descending Chicago Center
Tue 11:22:06 PM 41.5389 -92.9692 274° West 376 433 12,900 -2,777 Descending Chicago Center
Tue 11:23:07 PM 41.5483 -93.0864 276° West 321 369 11,000 -2,213 Descending Chicago Center
Tue 11:24:08 PM 41.5586 -93.2075 277° West 275 316 8,400 -2,410 Descending Chicago Center
Tue 11:25:09 PM 41.5661 -93.3008 276° West 257 296 6,100 -2,066 Descending Chicago Center
Tue 11:26:10 PM 41.5733 -93.3911 276° West 249 287 4,200 -1,426 Descending Chicago Center
Tue 11:27:11 PM 41.5808 -93.4775 277° West 245 282 3,200 -744 Descending Chicago Center
Tue 11:28:11 PM 41.5850 -93.5508 274° West 227 261 2,700 -595 Descending Chicago Center
Tue 11:29:12 PM 41.5667 -93.5989 243° Southwest 187 215 2,000 -745 Descending Chicago Center
Tue 11:30:28 PM 41.5364 -93.6550 234° Southwest 136 157 1,000 -438 Descending Minneapolis Center
Tue 11:31:29 PM 41.5183 -93.6886 234° Southwest 136 157 1,000  Level Minneapolis Center

Login

Don't have an account? Register now (free) for customized features, flight alerts, and more!